Time;durP1;ratioP1;P1;durP2;ratioP2;P2;SDS_P1;SDS_P2;PMS_P1;PMS_P2;Temp;Humidity;BMP_temperature;BMP_pressure;BME280_temperature;BME280_humidity;BME280_pressure;Samples;Min_cycle;Max_cycle;Signal;HPM_P1;HPM_P2
2021/04/29 00:02:00;;;;;;;;;;;;;;;;;;5074918;28;19904;-69
2021/04/29 00:04:26;;;;;;;;;;;;;;;;;;5072322;28;20381;-69
2021/04/29 00:06:52;;;;;;;;;;;;;;;;;;5071562;28;20003;-68
2021/04/29 00:09:18;;;;;;;;;;;;;;;;;;5064975;28;20361;-72
2021/04/29 00:11:44;;;;;;;;;;;;;;;;;;5055554;28;19932;-69
2021/04/29 00:14:10;;;;;;;;;;;;;;;;;;5055641;28;19904;-69
2021/04/29 00:16:36;;;;;;;;;;;;;;;;;;5055447;28;19905;-66
2021/04/29 00:19:02;;;;;;;;;;;;;;;;;;5042395;28;20270;-68
2021/04/29 00:21:28;;;;;;;;;;;;;;;;;;5055563;28;20281;-69
2021/04/29 00:23:54;;;;;;;;;;;;;;;;;;5055201;28;19916;-69
2021/04/29 00:26:20;;;;;;;;;;;;;;;;;;5055443;28;19904;-67
2021/04/29 00:28:46;;;;;;;;;;;;;;;;;;5055208;28;19905;-70
2021/04/29 00:31:12;;;;;;;;;;;;;;;;;;5029383;28;20352;-70
2021/04/29 00:33:38;;;;;;;;;;;;;;;;;;5049948;28;19908;-66
2021/04/29 00:36:04;;;;;;;;;;;;;;;;;;5055270;28;19996;-69
2021/04/29 00:38:29;;;;;;;;;;;;;;;;;;5055148;28;20016;-69
2021/04/29 00:40:55;;;;;;;;;;;;;;;;;;5054960;28;19905;-67
2021/04/29 00:43:21;;;;;;;;;;;;;;;;;;5055048;28;19913;-70
2021/04/29 00:45:47;;;;;;;;;;;409.70;2355.20;;;;;;5054759;28;19991;-70
2021/04/29 00:48:13;;;;;;;;;;;384.80;2329.60;;;;;;5054902;28;19909;-70
2021/04/29 00:50:39;;;;;;;;;;;384.80;2329.60;;;;;;5066212;28;19916;-70
2021/04/29 00:53:04;;;;;;;;;;;384.80;2329.60;;;;;;5074769;28;19987;-70
2021/04/29 00:55:30;;;;;;;;;;;384.80;2329.60;;;;;;5074952;28;19911;-66
2021/04/29 00:57:55;;;;;;;;;;;384.80;2329.60;;;;;;5074803;28;19951;-70
2021/04/29 01:00:21;;;;;;;;;;;384.80;2329.60;;;;;;5075057;28;19905;-69
2021/04/29 01:02:49;;;;;;;;;;;384.70;2329.60;;;;;;5074855;28;19912;-69
2021/04/29 01:05:19;;;;;;;;;;;384.70;2329.60;;;;;;5073923;28;19912;-67
2021/04/29 01:07:48;;;;;;;;;;;384.60;2329.60;;;;;;5074321;28;20362;-70
2021/04/29 01:10:17;;;;;;;;;;;384.60;2329.60;;;;;;5074477;28;19912;-69
2021/04/29 01:12:43;;;;;;;;;;;384.70;2329.60;;;;;;5058614;28;19909;-65
2021/04/29 01:15:10;;;;;;;;;;;384.60;2329.60;;;;;;5054650;28;19904;-66
2021/04/29 01:17:36;;;;;;;;;;;384.50;2329.60;;;;;;5063485;28;20388;-66
2021/04/29 01:20:07;;;;;;;;;;;384.50;2329.60;;;;;;5074166;28;19922;-67
2021/04/29 01:22:39;;;;;;;;;;;384.50;2329.60;;;;;;5074297;28;19962;-68
2021/04/29 01:25:06;;;;;;;;;;;384.60;2329.60;;;;;;5074200;28;19904;-67
2021/04/29 01:27:32;;;;;;;;;;;384.60;2329.60;;;;;;5074207;28;19904;-69
2021/04/29 01:29:59;;;;;;;;;;;384.70;2329.60;;;;;;5074213;28;20299;-67
2021/04/29 01:32:24;;;;;;;;;;;384.60;2329.60;;;;;;5073899;28;19904;-66
2021/04/29 01:34:50;;;;;;;;;;;384.60;2329.60;;;;;;5073813;28;19995;-67
2021/04/29 01:37:16;;;;;;;;;;;384.60;2329.60;;;;;;5073879;28;19908;-69
2021/04/29 01:39:42;;;;;;;;;;;384.50;2329.60;;;;;;5073959;28;19962;-67
2021/04/29 01:42:08;;;;;;;;;;;384.60;2329.60;;;;;;5074092;28;19982;-69
2021/04/29 01:44:34;;;;;;;;;;;384.70;2329.60;;;;;;5073898;28;20363;-69
2021/04/29 01:47:00;;;;;;;;;;;384.70;2329.60;;;;;;5073799;28;19950;-68
2021/04/29 01:49:26;;;;;;;;;;;384.70;2329.60;;;;;;5059431;28;19916;-69
2021/04/29 01:51:52;;;;;;;;;;;384.70;2329.60;;;;;;5073769;28;19908;-69
2021/04/29 01:54:18;;;;;;;;;;;384.70;2329.60;;;;;;5073585;28;19930;-65
2021/04/29 01:56:44;;;;;;;;;;;384.70;2329.60;;;;;;5073578;28;19909;-69
2021/04/29 01:59:10;;;;;;;;;;;384.70;2329.60;;;;;;5073591;28;20362;-66
2021/04/29 02:01:39;;;;;;;;;;;384.50;2329.60;;;;;;5073430;28;19946;-69
2021/04/29 02:04:05;;;;;;;;;;;384.60;2329.60;;;;;;5073204;28;20282;-68
2021/04/29 02:06:30;;;;;;;;;;;384.70;2329.60;;;;;;5073072;28;19973;-66
2021/04/29 02:08:56;;;;;;;;;;;384.60;2329.60;;;;;;5073495;28;20417;-67
2021/04/29 02:11:21;;;;;;;;;;;384.60;2329.60;;;;;;5073386;28;19904;-70
2021/04/29 02:13:48;;;;;;;;;;;384.50;2329.60;;;;;;5073243;28;20122;-70
2021/04/29 02:16:40;;;;;;;;;;;384.50;2329.60;;;;;;5073265;28;19909;-69
2021/04/29 02:19:07;;;;;;;;;;;384.40;2329.60;;;;;;5067388;28;19986;-67
2021/04/29 02:21:33;;;;;;;;;;;384.40;2329.60;;;;;;5073294;28;19904;-70
2021/04/29 02:23:58;;;;;;;;;;;384.40;2329.60;;;;;;5073146;28;20018;-66
2021/04/29 02:26:27;;;;;;;;;;;;;;;;;;5073367;28;19962;-66
2021/04/29 02:28:53;;;;;;;;;;;;;;;;;;5072955;28;20297;-69
2021/04/29 02:31:19;;;;;;;;;;;;;;;;;;5072831;28;19905;-70
2021/04/29 02:33:45;;;;;;;;;;;;;;;;;;5072711;28;19908;-70
2021/04/29 02:36:11;;;;;;;;;;;;;;;;;;5072990;28;19963;-68
2021/04/29 02:38:37;;;;;;;;;;;;;;;;;;5058720;28;19905;-66
2021/04/29 02:41:03;;;;;;;;;;;;;;;;;;5073034;28;20366;-70
2021/04/29 02:43:29;;;;;;;;;;;;;;;;;;5072818;28;19917;-67
2021/04/29 02:45:54;;;;;;;;;;;;;;;;;;5073007;28;19904;-70
2021/04/29 02:48:20;;;;;;;;;;;;;;;;;;5066424;28;19904;-65
2021/04/29 02:50:46;;;;;;;;;;;;;;;;;;5065019;28;20266;-69
2021/04/29 02:53:12;;;;;;;;;;;;;;;;;;5072622;28;19926;-69
2021/04/29 02:55:38;;;;;;;;;;;;;;;;;;5072775;28;19908;-65
2021/04/29 02:58:08;;;;;;;;;;;;;;;;;;5072614;28;19947;-69
2021/04/29 03:00:34;;;;;;;;;;;;;;;;;;5072816;28;19908;-69
2021/04/29 03:03:00;;;;;;;;;;;;;;;;;;5072290;28;19920;-66
2021/04/29 03:05:26;;;;;;;;;;;;;;;;;;5072373;28;19920;-66
2021/04/29 03:07:52;;;;;;;;;;;;;;;;;;5072583;28;19908;-69
2021/04/29 03:10:18;;;;;;;;;;;;;;;;;;5072351;28;19923;-65
2021/04/29 03:12:44;;;;;;;;;;;;;;;;;;5072613;28;19905;-68
2021/04/29 03:15:10;;;;;;;;;;;;;;;;;;5072461;28;19950;-67
2021/04/29 03:17:36;;;;;;;;;;;;;;;;;;5072343;28;19912;-69
2021/04/29 03:20:02;;;;;;;;;;;;;;;;;;5058362;28;20381;-69
2021/04/29 03:22:28;;;;;;;;;;;;;;;;;;5072409;28;19912;-68
2021/04/29 03:24:54;;;;;;;;;;;;;;;;;;5072425;28;19931;-68
2021/04/29 03:27:20;;;;;;;;;;;;;;;;;;5072412;28;20344;-70
2021/04/29 03:29:46;;;;;;;;;;;;;;;;;;5056553;28;19997;-70
2021/04/29 03:32:12;;;;;;;;;;;;;;;;;;5076006;28;19950;-69
2021/04/29 03:34:38;;;;;;;;;;;;;;;;;;5076263;28;19951;-67
2021/04/29 03:37:04;;;;;;;;;;;;;;;;;;5076223;28;20363;-70
2021/04/29 03:39:30;;;;;;;;;;;;;;;;;;5076292;28;19939;-70
2021/04/29 03:41:56;;;;;;;;;;;;;;;;;;5076234;28;19952;-70
2021/04/29 03:44:21;;;;;;;;;;;;;;;;;;5075999;28;19959;-69
2021/04/29 03:46:47;;;;;;;;;;;;;;;;;;5076148;28;19944;-66
2021/04/29 03:49:13;;;;;;;;;;;;;;;;;;5062481;28;20363;-70
2021/04/29 03:51:39;;;;;;;;;;;;;;;;;;5075382;28;19995;-69
2021/04/29 03:54:05;;;;;;;;;;;;;;;;;;5075971;28;19992;-70
2021/04/29 03:56:31;;;;;;;;;;;;;;;;;;5075833;28;19911;-70
2021/04/29 03:58:57;;;;;;;;;;;;;;;;;;5075964;28;19904;-69
2021/04/29 04:01:23;;;;;;;;;;;;;;;;;;5075683;28;19994;-69
2021/04/29 04:03:49;;;;;;;;;;;;;;;;;;5075566;28;19923;-70
2021/04/29 04:06:15;;;;;;;;;;;;;;;;;;5075563;28;19927;-69
2021/04/29 04:08:41;;;;;;;;;;;;;;;;;;5075624;28;19962;-70
2021/04/29 04:11:07;;;;;;;;;;;;;;;;;;5075651;28;19954;-69
2021/04/29 04:13:32;;;;;;;;;;;;;;;;;;5075493;28;19905;-69
2021/04/29 04:15:58;;;;;;;;;;;;;;;;;;5075727;28;19915;-69
2021/04/29 04:18:24;;;;;;;;;;;;;;;;;;5075352;28;20321;-68
2021/04/29 04:20:50;;;;;;;;;;;;;;;;;;5075406;28;19904;-65
2021/04/29 04:23:16;;;;;;;;;;;;;;;;;;5075340;28;19955;-69
2021/04/29 04:25:42;;;;;;;;;;;;;;;;;;5069459;28;19904;-68
2021/04/29 04:28:08;;;;;;;;;;;;;;;;;;5067208;28;20328;-68
2021/04/29 04:30:34;;;;;;;;;;;;;;;;;;5075114;28;19905;-69
2021/04/29 04:33:00;;;;;;;;;;;;;;;;;;5075130;28;19950;-68
2021/04/29 04:35:26;;;;;;;;;;;;;;;;;;5074935;28;19913;-68
2021/04/29 04:37:51;;;;;;;;;;;;;;;;;;5075151;28;19908;-68
2021/04/29 04:40:17;;;;;;;;;;;;;;;;;;5056325;28;20396;-66
2021/04/29 04:42:43;;;;;;;;;;;;;;;;;;5074491;28;19908;-70
2021/04/29 04:45:09;;;;;;;;;;;;;;;;;;5075133;28;20361;-66
2021/04/29 04:47:35;;;;;;;;;;;;;;;;;;5074785;28;20347;-66
2021/04/29 04:50:01;;;;;;;;;;;;;;;;;;5046843;28;19955;-66
2021/04/29 04:52:27;;;;;;;;;;;;;;;;;;5074831;28;19905;-65
2021/04/29 04:54:53;;;;;;;;;;;;;;;;;;5074740;28;19905;-68
2021/04/29 04:57:19;;;;;;;;;;;;;;;;;;5056873;28;19927;-66
2021/04/29 04:59:45;;;;;;;;;;;;;;;;;;5074746;28;19904;-68
2021/04/29 05:02:11;;;;;;;;;;;;;;;;;;5074531;28;20619;-66
2021/04/29 05:04:37;;;;;;;;;;;;;;;;;;5074382;28;19909;-66
2021/04/29 05:07:06;;;;;;;;;;;;;;;;;;5056446;28;19920;-65
2021/04/29 05:09:32;;;;;;;;;;;;;;;;;;5074587;28;19995;-67
2021/04/29 05:11:58;;;;;;;;;;;;;;;;;;5074462;28;19952;-65
2021/04/29 05:14:24;;;;;;;;;;;;;;;;;;5074506;28;19911;-65
2021/04/29 05:16:50;;;;;;;;;;;;;;;;;;5074343;28;19912;-66
2021/04/29 05:19:16;;;;;;;;;;;;;;;;;;5074205;28;19928;-66
2021/04/29 05:21:42;;;;;;;;;;;;;;;;;;5074170;28;19912;-68
2021/04/29 05:24:08;;;;;;;;;;;;;;;;;;5074082;28;19916;-65
2021/04/29 05:26:34;;;;;;;;;;;;;;;;;;5074165;28;19905;-65
2021/04/29 05:28:59;;;;;;;;;;;;;;;;;;5074033;28;20036;-66
2021/04/29 05:31:25;;;;;;;;;;;;;;;;;;5074186;28;20406;-68
2021/04/29 05:33:51;;;;;;;;;;;;;;;;;;5073659;28;20294;-66
2021/04/29 05:36:17;;;;;;;;;;;;;;;;;;5073886;28;19909;-65
2021/04/29 05:38:43;;;;;;;;;;;;;;;;;;5073860;28;19911;-68
2021/04/29 05:41:09;;;;;;;;;;;;;;;;;;5073878;28;19912;-68
2021/04/29 05:43:35;;;;;;;;;;;;;;;;;;5073879;28;19912;-68
2021/04/29 05:46:01;;;;;;;;;;;;;;;;;;5073626;28;19904;-66
2021/04/29 05:48:27;;;;;;;;;;;;;;;;;;5066576;28;19904;-68
2021/04/29 05:50:53;;;;;;;;;;;;;;;;;;5048760;28;19904;-69
2021/04/29 05:53:19;;;;;;;;;;;;;;;;;;5073285;28;19908;-66
2021/04/29 05:55:45;;;;;;;;;;;;;;;;;;5073787;28;19916;-70
2021/04/29 05:58:10;;;;;;;;;;;;;;;;;;5073370;28;19911;-69
2021/04/29 06:00:37;;;;;;;;;;;;;;;;;;5073547;28;19904;-69
2021/04/29 06:03:02;;;;;;;;;;;;;;;;;;5073244;28;19919;-70
2021/04/29 06:05:28;;;;;;;;;;;;;;;;;;5073061;28;19921;-70
2021/04/29 06:07:54;;;;;;;;;;;;;;;;;;5073362;28;19912;-69
2021/04/29 06:10:20;;;;;;;;;;;384.90;2201.60;;;;;;5073232;28;19904;-68
2021/04/29 06:12:46;;;;;;;;;;;409.60;2227.20;;;;;;5073362;28;19904;-69
2021/04/29 06:15:11;;;;;;;;;;;409.60;2201.60;;;;;;5073168;28;19934;-68
2021/04/29 06:17:37;;;;;;;;;;;409.60;2201.60;;;;;;5073206;28;19910;-68
2021/04/29 06:20:03;;;;;;;;;;;384.90;2201.60;;;;;;5073168;28;20273;-68
2021/04/29 06:22:28;;;;;;;;;;;409.70;2176.00;;;;;;5072985;28;19951;-67
2021/04/29 06:24:54;;;;;;;;;;;409.60;2201.60;;;;;;5072975;28;19911;-66
2021/04/29 06:27:19;;;;;;;;;;;409.80;2201.60;;;;;;5072887;28;19951;-68
2021/04/29 06:29:45;;;;;;;;;;;409.80;2227.20;;;;;;5073311;28;19911;-67
2021/04/29 06:32:10;;;;;;;;;;;410.00;2227.20;;;;;;5072883;28;19911;-66
2021/04/29 06:34:36;;;;;;;;;;;410.10;2227.20;;;;;;5072714;28;19912;-70
2021/04/29 06:37:02;;;;;;;;;;;410.10;2201.60;;;;;;5072550;28;19966;-67
2021/04/29 06:39:27;;;;;;;;;;;410.20;2176.00;;;;;;5072895;28;19956;-68
2021/04/29 06:41:53;;;;;;;;;;;435.20;2201.60;;;;;;5072922;28;20445;-67
2021/04/29 06:44:19;;;;;;;;;;;410.40;2176.00;;;;;;5072616;28;19965;-66
2021/04/29 06:46:45;;;;;;;;;;;410.40;2176.00;;;;;;5072798;28;20339;-69
2021/04/29 06:49:11;;;;;;;;;;;435.20;2150.40;;;;;;5059238;28;19905;-67
2021/04/29 06:51:36;;;;;;;;;;;435.30;2150.40;;;;;;5071558;28;20344;-67
2021/04/29 06:54:02;;;;;;;;;;;435.40;2150.40;;;;;;5072592;28;20029;-69
2021/04/29 06:56:28;;;;;;;;;;;435.40;2150.40;;;;;;5054116;28;19985;-67
2021/04/29 06:58:53;;;;;;;;;;;;;;;;;;5072672;28;19916;-68
2021/04/29 07:01:19;;;;;;;;;;;435.30;2048.00;;;;;;5072518;28;20351;-70
2021/04/29 07:03:45;;;;;;;;;;;410.30;2150.40;;;;;;5071717;28;19918;-69
2021/04/29 07:06:10;;;;;;;;;;;410.20;2201.60;;;;;;5072330;28;20370;-70
2021/04/29 07:08:36;;;;;;;;;;;410.40;2176.00;;;;;;5072289;28;19905;-69
2021/04/29 07:11:01;;;;;;;;;;;410.20;2201.60;;;;;;5072845;28;19966;-69
2021/04/29 07:13:27;;;;;;;;;;;410.50;2227.20;;;;;;5072385;28;19904;-68
2021/04/29 07:15:52;;;;;;;;;;;435.40;2227.20;;;;;;5072506;28;19904;-70
2021/04/29 07:18:19;;;;;;;;;;;435.60;2124.80;;;;;;5072219;28;20286;-66
2021/04/29 07:20:45;;;;;;;;;;;;;;;;;;5072344;28;19904;-66
2021/04/29 07:23:11;;;;;;;;;;;435.90;2124.80;;;;;;5072291;28;19920;-66
2021/04/29 07:25:37;;;;;;;;;;;435.80;2124.80;;;;;;5072396;28;19919;-67
2021/04/29 07:28:03;;;;;;;;;;;;;;;;;;5072385;28;19905;-66
2021/04/29 07:30:29;;;;;;;;;;;;;;;;;;5072254;28;19915;-66
2021/04/29 07:32:54;;;;;;;;;;;;;;;;;;5072263;28;19937;-66
2021/04/29 07:35:22;;;;;;;;;;;;;;;;;;5071996;28;19908;-65
2021/04/29 07:37:48;;;;;;;;;;;;;;;;;;5072286;28;19909;-66
2021/04/29 07:40:13;;;;;;;;;;;;;;;;;;5071978;28;19904;-66
2021/04/29 07:42:39;;;;;;;;;;;;;;;;;;5071922;28;19912;-66
2021/04/29 07:45:05;;;;;;;;;;;;;;;;;;5072172;28;19943;-66
2021/04/29 07:47:31;;;;;;;;;;;;;;;;;;5072230;28;20380;-66
2021/04/29 07:49:57;;;;;;;;;;;;;;;;;;5057893;28;19998;-66
2021/04/29 07:52:23;;;;;;;;;;;;;;;;;;5071776;28;19942;-67
2021/04/29 07:54:49;;;;;;;;;;;;;;;;;;5071815;28;19905;-66
2021/04/29 07:57:16;;;;;;;;;;;;;;;;;;5071981;28;19904;-68
2021/04/29 07:59:41;;;;;;;;;;;;;;;;;;5072001;28;19905;-67
2021/04/29 08:02:07;;;;;;;;;;;;;;;;;;5072210;28;19995;-68
2021/04/29 08:04:33;;;;;;;;;;;;;;;;;;5071797;28;20392;-67
2021/04/29 08:06:59;;;;;;;;;;;;;;;;;;5070810;28;19952;-68
2021/04/29 08:09:25;;;;;;;;;;;;;;;;;;5068450;28;19927;-67
2021/04/29 08:11:51;;;;;;;;;;;;;;;;;;5066555;28;19916;-66
2021/04/29 08:14:17;;;;;;;;;;;;;;;;;;5069433;28;20396;-66
2021/04/29 08:16:43;;;;;;;;;;;;;;;;;;5057764;28;19912;-67
2021/04/29 08:19:09;;;;;;;;;;;;;;;;;;5054528;28;20283;-68
2021/04/29 08:21:35;;;;;;;;;;;;;;;;;;5055035;28;19974;-67
2021/04/29 08:24:01;;;;;;;;;;;;;;;;;;5054281;28;19913;-67
2021/04/29 08:26:27;;;;;;;;;;;;;;;;;;5033163;28;20321;-66
2021/04/29 08:28:53;;;;;;;;;;;;;;;;;;5054474;28;19905;-66
2021/04/29 08:31:19;;;;;;;;;;;;;;;;;;5054802;28;19967;-68
2021/04/29 08:33:45;;;;;;;;;;;;;;;;;;5053963;28;19908;-68
2021/04/29 08:36:11;;;;;;;;;;;;;;;;;;5054646;28;19916;-67
2021/04/29 08:38:37;;;;;;;;;;;;;;;;;;5054684;28;19911;-68
2021/04/29 08:41:03;;;;;;;;;;;;;;;;;;5054362;28;19909;-68
2021/04/29 08:43:29;;;;;;;;;;;;;;;;;;5054461;28;19917;-67
2021/04/29 08:45:55;;;;;;;;;;;;;;;;;;5054083;28;19908;-67
2021/04/29 08:48:21;;;;;;;;;;;;;;;;;;5062579;28;20251;-66
2021/04/29 08:50:46;;;;;;;;;;;538.40;1817.60;;;;;;5071190;28;19908;-65
2021/04/29 08:53:12;;;;;;;;;;;;;;;;;;5068950;28;20300;-66
2021/04/29 08:55:38;;;;;;;;;;;;;;;;;;5071777;28;19916;-66
2021/04/29 08:58:04;;;;;;;;;;;;;;;;;;5052478;28;19904;-65
2021/04/29 09:00:30;;;;;;;;;;;;;;;;;;5072480;28;19911;-66
2021/04/29 09:02:56;;;;;;;;;;;;;;;;;;5071872;28;19930;-65
2021/04/29 09:05:22;;;;;;;;;;;;;;;;;;5072049;28;20355;-65
2021/04/29 09:07:48;;;;;;;;;;;;;;;;;;5061313;28;19920;-68
2021/04/29 09:10:14;;;;;;;;;;;;;;;;;;5054149;28;19908;-67
2021/04/29 09:12:44;;;;;;;;;;;;;;;;;;5058090;28;19904;-66
2021/04/29 09:15:10;;;;;;;;;;;;;;;;;;5062299;28;19948;-69
2021/04/29 09:17:35;;;;;;;;;;;;;;;;;;5057316;28;20342;-67
2021/04/29 09:20:01;;;;;;;;;;;;;;;;;;5053617;28;19955;-68
2021/04/29 09:22:27;;;;;;;;;;;;;;;;;;5053539;28;19976;-68
2021/04/29 09:24:53;;;;;;;;;;;;;;;;;;5053544;28;19905;-68
2021/04/29 09:27:19;;;;;;;;;;;;;;;;;;5066595;28;20389;-70
2021/04/29 09:29:45;;;;;;;;;;;;;;;;;;5072199;28;20003;-68
2021/04/29 09:32:11;;;;;;;;;;;;;;;;;;5056221;28;19947;-68
2021/04/29 09:34:37;;;;;;;;;;;;;;;;;;5053435;28;19912;-68
2021/04/29 09:37:03;;;;;;;;;;;;;;;;;;5053357;28;19916;-71
2021/04/29 09:39:29;;;;;;;;;;;;;;;;;;5040697;28;20055;-67
2021/04/29 09:41:55;;;;;;;;;;;;;;;;;;5053484;28;19959;-68
2021/04/29 09:44:21;;;;;;;;;;;;;;;;;;5052910;28;19986;-69
2021/04/29 09:46:47;;;;;;;;;;;;;;;;;;5052984;28;19912;-66
2021/04/29 09:49:12;;;;;;;;;;;;;;;;;;5053228;28;19905;-69
2021/04/29 09:51:40;;;;;;;;;;;;;;;;;;5072258;28;19909;-69
2021/04/29 09:54:06;;;;;;;;;;;;;;;;;;5073105;28;19904;-69
2021/04/29 09:56:31;;;;;;;;;;;666.20;1100.80;;;;;;5072781;28;19911;-69
2021/04/29 09:58:58;;;;;;;;;;;666.10;1100.80;;;;;;5073093;28;20286;-68
2021/04/29 10:01:25;;;;;;;;;;;666.20;1126.40;;;;;;5062357;28;19958;-68
2021/04/29 10:10:04;;;;;;;;;;;;;;;;;;5541874;22;19921;-70
2021/04/29 10:12:30;;;;;;;;;;;;;;;;;;5034057;28;19916;-71
2021/04/29 10:14:56;;;;;;;;;;;;;;;;;;5017097;28;19908;-70
2021/04/29 10:17:23;;;;;;;;;;;;;;;;;;5035567;28;19941;-70
2021/04/29 10:19:49;;;;;;;;;;;;;;;;;;5053416;28;19912;-70
2021/04/29 10:22:15;;;;;;;;;;;;;;;;;;5053213;28;19904;-71
2021/04/29 10:24:41;;;;;;;;;;;;;;;;;;5035479;28;19919;-70
2021/04/29 10:27:07;;;;;;;;;;;;;;;;;;5035296;28;20002;-70
2021/04/29 10:29:33;;;;;;;;;;;;;;;;;;5035295;28;20003;-71
2021/04/29 10:31:59;;;;;;;;;;;;;;;;;;5053107;28;20357;-70
2021/04/29 10:34:25;;;;;;;;;;;;;;;;;;5035047;28;19904;-70
2021/04/29 10:36:51;;;;;;;;;;;;;;;;;;5035170;28;20248;-70
2021/04/29 10:39:17;;;;;;;;;;;;;;;;;;5050624;28;19958;-71
2021/04/29 10:41:43;;;;;;;;;;;665.60;1100.80;;;;;;5045236;28;20369;-68
2021/04/29 10:44:10;;;;;;;;;;;665.60;1100.80;;;;;;5052579;28;20306;-69
2021/04/29 10:46:39;;;;;;;;;;;666.10;1049.60;;;;;;5052847;28;19904;-69
2021/04/29 10:49:04;;;;;;;;;;;666.10;1024.00;;;;;;5034927;28;19911;-71
2021/04/29 10:51:30;;;;;;;;;;;665.80;1049.60;;;;;;5052294;28;19912;-71
2021/04/29 10:54:06;;;;;;;;;;;665.60;1100.80;;;;;;5052959;28;19905;-69
2021/04/29 10:56:32;;;;;;;;;;;640.90;1075.20;;;;;;5052640;28;20432;-70
2021/04/29 10:59:06;;;;;;;;;;;640.90;1075.20;;;;;;5052684;28;20267;-69
2021/04/29 11:01:38;;;;;;;;;;;640.90;1075.20;;;;;;5052369;28;19912;-69
2021/04/29 11:04:12;;;;;;;;;;;640.90;1100.80;;;;;;5034745;28;19916;-69
2021/04/29 11:06:39;;;;;;;;;;;640.70;1100.80;;;;;;5052407;28;19954;-69
2021/04/29 11:09:15;;;;;;;;;;;640.60;1075.20;;;;;;5052219;28;20367;-69
2021/04/29 11:11:41;;;;;;;;;;;640.50;1100.80;;;;;;5065168;28;19908;-69
2021/04/29 11:14:07;;;;;;;;;;;640.70;1100.80;;;;;;5072484;28;19912;-67
2021/04/29 11:16:45;;;;;;;;;;;640.90;1075.20;;;;;;5054586;28;19916;-68
2021/04/29 11:19:30;;;;;;;;;;;665.90;1075.20;;;;;;5014702;28;19909;-70
2021/04/29 11:22:12;;;;;;;;;;;666.20;1049.60;;;;;;5047870;28;20312;-72
2021/04/29 11:24:39;;;;;;;;;;;666.50;1075.20;;;;;;5027915;28;20256;-71
2021/04/29 11:27:05;;;;;;;;;;;;;;;;;;5049668;28;19904;-72
2021/04/29 11:29:31;;;;;;;;;;;;;;;;;;5020413;28;19971;-73
2021/04/29 11:31:57;;;;;;;;;;;;;;;;;;5015784;28;19905;-72
2021/04/29 11:34:23;;;;;;;;;;;;;;;;;;5052307;28;19927;-73
2021/04/29 11:36:57;;;;;;;;;;;666.20;1100.80;;;;;;5047847;28;20016;-72
2021/04/29 11:39:25;;;;;;;;;;;666.00;1152.00;;;;;;5041169;28;19951;-72
2021/04/29 11:41:50;;;;;;;;;;;666.20;1152.00;;;;;;5052554;28;20401;-72
2021/04/29 11:44:16;;;;;;;;;;;;;;;;;;5051781;28;20070;-73
2021/04/29 11:46:43;;;;;;;;;;;;;;;;;;5024976;28;19904;-74
2021/04/29 11:49:09;;;;;;;;;;;;;;;;;;5066425;28;20378;-74
2021/04/29 11:51:34;;;;;;;;;;;;;;;;;;5073545;28;19908;-74
2021/04/29 11:54:00;;;;;;;;;;;;;;;;;;5075107;28;19911;-75
2021/04/29 11:56:26;;;;;;;;;;;;;;;;;;5040894;28;19917;-74
2021/04/29 11:58:52;;;;;;;;;;;;;;;;;;5055803;28;19958;-73
2021/04/29 12:01:18;;;;;;;;;;;;;;;;;;5024253;28;19913;-74
2021/04/29 12:03:46;;;;;;;;;;;;;;;;;;5044858;28;20373;-74
2021/04/29 12:06:11;;;;;;;;;;;;;;;;;;5072910;28;19908;-75
2021/04/29 12:08:37;;;;;;;;;;;;;;;;;;5056258;28;19909;-74
2021/04/29 12:11:03;;;;;;;;;;;;;;;;;;5050026;28;20003;-74
2021/04/29 12:13:29;;;;;;;;;;;;;;;;;;5053513;28;20358;-74
2021/04/29 12:15:55;;;;;;;;;;;;;;;;;;5055488;28;20366;-72
2021/04/29 12:18:21;;;;;;;;;;;;;;;;;;5039738;28;19908;-74
2021/04/29 12:20:47;;;;;;;;;;;;;;;;;;5048569;28;19989;-75
2021/04/29 12:23:14;;;;;;;;;;;;;;;;;;5055847;28;19923;-75
2021/04/29 12:25:40;;;;;;;;;;;;;;;;;;5032601;28;19931;-74
2021/04/29 12:28:05;;;;;;;;;;;;;;;;;;5055625;28;20346;-74
2021/04/29 12:30:31;;;;;;;;;;;;;;;;;;5055601;28;20388;-74
2021/04/29 12:32:57;;;;;;;;;;;;;;;;;;5055220;28;19995;-74
2021/04/29 12:35:23;;;;;;;;;;;;;;;;;;5055270;28;19999;-73
2021/04/29 12:37:49;;;;;;;;;;;;;;;;;;5037492;28;20000;-74
2021/04/29 12:40:15;;;;;;;;;;;;;;;;;;5055571;28;20011;-75
2021/04/29 12:42:41;;;;;;;;;;;;;;;;;;5031750;28;20050;-75
2021/04/29 12:45:08;;;;;;;;;;;;;;;;;;5031523;28;19908;-75
2021/04/29 12:47:33;;;;;;;;;;;;;;;;;;5031561;28;19912;-73
2021/04/29 12:50:00;;;;;;;;;;;;;;;;;;5060710;28;19911;-73
2021/04/29 12:52:26;;;;;;;;;;;;;;;;;;5075150;28;19999;-74
2021/04/29 12:54:53;;;;;;;;;;;;;;;;;;5060991;28;19935;-75
2021/04/29 12:57:19;;;;;;;;;;;;;;;;;;5065093;28;19904;-74
2021/04/29 12:59:45;;;;;;;;;;;;;;;;;;5070999;28;20354;-74
2021/04/29 13:02:11;;;;;;;;;;;;;;;;;;5055913;28;19904;-75
2021/04/29 13:04:39;;;;;;;;;;;;;;;;;;5074664;28;19913;-75
2021/04/29 13:07:05;;;;;;;;;;;;;;;;;;5074894;28;20064;-74
2021/04/29 13:09:30;;;;;;;;;;;;;;;;;;5074477;28;20408;-75
2021/04/29 13:11:56;;;;;;;;;;;;;;;;;;5074619;28;19961;-75
2021/04/29 13:14:22;;;;;;;;;;;;;;;;;;5056654;28;19911;-75
2021/04/29 13:16:48;;;;;;;;;;;;;;;;;;5074300;28;19908;-75
2021/04/29 13:19:14;;;;;;;;;;;;;;;;;;5056577;28;19950;-75
2021/04/29 13:21:40;;;;;;;;;;;;;;;;;;5074321;28;20440;-75
2021/04/29 13:24:06;;;;;;;;;;;;;;;;;;5074433;28;19916;-75
2021/04/29 13:26:32;;;;;;;;;;;;;;;;;;5074422;28;19904;-75
2021/04/29 13:28:58;;;;;;;;;;;;;;;;;;5060185;28;19908;-74
2021/04/29 13:31:24;;;;;;;;;;;;;;;;;;5074323;28;19904;-74
2021/04/29 13:33:50;;;;;;;;;;;;;;;;;;5074137;28;19978;-74
2021/04/29 13:36:16;;;;;;;;;;;;;;;;;;5074223;28;19969;-73
2021/04/29 13:38:42;;;;;;;;;;;;;;;;;;5074102;28;19959;-73
2021/04/29 13:41:08;;;;;;;;;;;;;;;;;;5056217;28;20366;-73
2021/04/29 13:43:34;;;;;;;;;;;;;;;;;;5074161;28;19920;-72
2021/04/29 13:46:01;;;;;;;;;;;;;;;;;;5073628;28;19904;-73
2021/04/29 13:48:27;;;;;;;;;;;;;;;;;;5066669;28;19920;-73
2021/04/29 13:50:53;;;;;;;;;;;;;;;;;;5048894;28;19904;-74
2021/04/29 13:53:19;;;;;;;;;;;;;;;;;;5055826;28;19904;-74
2021/04/29 13:55:45;;;;;;;;;;;;;;;;;;5055959;28;19905;-75
2021/04/29 13:58:11;;;;;;;;;;;;;;;;;;5041854;28;19911;-74
2021/04/29 14:00:38;;;;;;;;;;;;;;;;;;5073765;28;19999;-74
2021/04/29 14:03:04;;;;;;;;;;;;;;;;;;5073593;28;19963;-74
2021/04/29 14:05:30;;;;;;;;;;;;;;;;;;5055532;28;20251;-74
2021/04/29 14:07:56;;;;;;;;;;;;;;;;;;5055664;28;19939;-75
2021/04/29 14:10:22;;;;;;;;;;;;;;;;;;5072972;28;19929;-74
2021/04/29 14:12:48;;;;;;;;;;;;;;;;;;5073470;28;19912;-74
2021/04/29 14:15:14;;;;;;;;;;;;;;;;;;5073438;28;19904;-74
2021/04/29 14:17:39;;;;;;;;;;;;;;;;;;5073465;28;19965;-74
2021/04/29 14:20:05;;;;;;;;;;;;;;;;;;5055219;28;19904;-74
2021/04/29 14:22:31;;;;;;;;;;;;;;;;;;5055271;28;19905;-74
2021/04/29 14:24:57;;;;;;;;;;;;;;;;;;5055388;28;19912;-73
2021/04/29 14:27:23;;;;;;;;;;;;;;;;;;5067775;28;19905;-73
2021/04/29 14:29:49;;;;;;;;;;;;;;;;;;5047212;28;19908;-73
2021/04/29 14:32:15;;;;;;;;;;;;;;;;;;5073240;28;20286;-73
2021/04/29 14:34:41;;;;;;;;;;;;;;;;;;5055114;28;19904;-74
2021/04/29 14:37:07;;;;;;;;;;;;;;;;;;5073008;28;19911;-73
2021/04/29 14:39:33;;;;;;;;;;;;;;;;;;5073039;28;19912;-74
2021/04/29 14:42:01;;;;;;;;;;;;;;;;;;5073127;28;20358;-74
2021/04/29 14:44:27;;;;;;;;;;;;;;;;;;5072973;28;19916;-74
2021/04/29 14:46:53;;;;;;;;;;;;;;;;;;5060923;28;19909;-74
2021/04/29 14:49:19;;;;;;;;;;;;;;;;;;5056918;28;19996;-74
2021/04/29 14:51:45;;;;;;;;;;;;;;;;;;5073139;28;20317;-74
2021/04/29 14:54:11;;;;;;;;;;;;;;;;;;5073009;28;19911;-74
2021/04/29 14:56:37;;;;;;;;;;;;;;;;;;5072760;28;19904;-74
2021/04/29 14:59:03;;;;;;;;;;;;;;;;;;5072962;28;20370;-74
2021/04/29 15:01:29;;;;;;;;;;;;;;;;;;5058742;28;19911;-74
2021/04/29 15:03:55;;;;;;;;;;;;;;;;;;5073062;28;19912;-74
2021/04/29 15:06:21;;;;;;;;;;;;;;;;;;5054558;28;20255;-74
2021/04/29 15:08:47;;;;;;;;;;;;;;;;;;5054495;28;19905;-74
2021/04/29 15:11:13;;;;;;;;;;;;;;;;;;5072598;28;20324;-74
2021/04/29 15:13:38;;;;;;;;;;;;;;;;;;5072456;28;19916;-74
2021/04/29 15:16:04;;;;;;;;;;;;;;;;;;5072544;28;19927;-74
2021/04/29 15:18:30;;;;;;;;;;;;;;;;;;5054512;28;20282;-74
2021/04/29 15:20:56;;;;;;;;;;;;;;;;;;5072957;28;19912;-73
2021/04/29 15:23:22;;;;;;;;;;;;;;;;;;5058314;28;19913;-73
2021/04/29 15:25:48;;;;;;;;;;;;;;;;;;5056637;28;20003;-73
2021/04/29 15:28:14;;;;;;;;;;;;;;;;;;5058547;28;19904;-74
2021/04/29 15:30:40;;;;;;;;;;;;;;;;;;5076576;28;19905;-74
2021/04/29 15:33:06;;;;;;;;;;;;;;;;;;5076558;28;19904;-74
2021/04/29 15:35:32;;;;;;;;;;;;;;;;;;5076433;28;20428;-74
2021/04/29 15:37:59;;;;;;;;;;;;;;;;;;5068070;28;19908;-74
2021/04/29 15:40:25;;;;;;;;;;;;;;;;;;5071531;28;19912;-74
2021/04/29 15:42:51;;;;;;;;;;;614.60;1792.00;;;;;;5058527;28;20014;-72
2021/04/29 15:45:17;;;;;;;;;;;614.50;1817.60;;;;;;5076487;28;19908;-73
2021/04/29 15:47:43;;;;;;;;;;;614.60;1792.00;;;;;;5057352;28;19909;-73
2021/04/29 15:50:09;;;;;;;;;;;614.60;1945.60;;;;;;5063372;28;20289;-73